sensor_id;sensor_type;location;lat;lon;timestamp;P1;durP1;ratioP1;P2;durP2;ratioP2
6755;SDS011;3415;51.148;7.014;2023-04-20T00:02:17;2.90;;;2.10;;
6755;SDS011;3415;51.148;7.014;2023-04-20T00:04:45;3.83;;;2.20;;
6755;SDS011;3415;51.148;7.014;2023-04-20T00:07:12;10.60;;;2.33;;
6755;SDS011;3415;51.148;7.014;2023-04-20T00:09:40;3.33;;;2.23;;
6755;SDS011;3415;51.148;7.014;2023-04-20T00:12:07;3.93;;;2.20;;
6755;SDS011;3415;51.148;7.014;2023-04-20T00:14:34;3.60;;;2.50;;
6755;SDS011;3415;51.148;7.014;2023-04-20T00:17:01;7.60;;;2.87;;
6755;SDS011;3415;51.148;7.014;2023-04-20T00:19:29;2.80;;;2.03;;
6755;SDS011;3415;51.148;7.014;2023-04-20T00:21:57;4.33;;;2.43;;
6755;SDS011;3415;51.148;7.014;2023-04-20T00:24:24;6.97;;;2.43;;
6755;SDS011;3415;51.148;7.014;2023-04-20T00:26:51;5.43;;;2.33;;
6755;SDS011;3415;51.148;7.014;2023-04-20T00:29:19;8.77;;;2.70;;
6755;SDS011;3415;51.148;7.014;2023-04-20T00:31:45;6.07;;;2.57;;
6755;SDS011;3415;51.148;7.014;2023-04-20T00:34:13;5.43;;;2.57;;
6755;SDS011;3415;51.148;7.014;2023-04-20T00:36:42;4.40;;;2.50;;
6755;SDS011;3415;51.148;7.014;2023-04-20T00:39:09;7.83;;;2.40;;
6755;SDS011;3415;51.148;7.014;2023-04-20T00:41:36;6.73;;;2.77;;
6755;SDS011;3415;51.148;7.014;2023-04-20T00:44:04;3.03;;;1.87;;
6755;SDS011;3415;51.148;7.014;2023-04-20T00:46:33;7.43;;;2.00;;
6755;SDS011;3415;51.148;7.014;2023-04-20T00:49:00;5.20;;;2.73;;
6755;SDS011;3415;51.148;7.014;2023-04-20T00:51:27;4.17;;;2.43;;
6755;SDS011;3415;51.148;7.014;2023-04-20T00:53:57;6.80;;;3.07;;
6755;SDS011;3415;51.148;7.014;2023-04-20T00:56:24;3.00;;;1.90;;
6755;SDS011;3415;51.148;7.014;2023-04-20T00:58:51;4.60;;;2.57;;
6755;SDS011;3415;51.148;7.014;2023-04-20T01:01:18;3.80;;;2.20;;
6755;SDS011;3415;51.148;7.014;2023-04-20T01:03:45;3.50;;;2.40;;
6755;SDS011;3415;51.148;7.014;2023-04-20T01:06:12;4.43;;;2.40;;
6755;SDS011;3415;51.148;7.014;2023-04-20T01:08:49;5.27;;;2.13;;
6755;SDS011;3415;51.148;7.014;2023-04-20T01:11:18;3.10;;;2.37;;
6755;SDS011;3415;51.148;7.014;2023-04-20T01:13:45;6.57;;;2.50;;
6755;SDS011;3415;51.148;7.014;2023-04-20T01:16:11;3.40;;;2.33;;
6755;SDS011;3415;51.148;7.014;2023-04-20T01:18:42;2.90;;;2.10;;
6755;SDS011;3415;51.148;7.014;2023-04-20T01:21:10;5.10;;;2.37;;
6755;SDS011;3415;51.148;7.014;2023-04-20T01:23:39;6.30;;;2.40;;
6755;SDS011;3415;51.148;7.014;2023-04-20T01:26:06;8.63;;;2.60;;
6755;SDS011;3415;51.148;7.014;2023-04-20T01:28:34;3.93;;;2.13;;
6755;SDS011;3415;51.148;7.014;2023-04-20T01:31:01;5.07;;;2.00;;
6755;SDS011;3415;51.148;7.014;2023-04-20T01:33:28;4.87;;;2.93;;
6755;SDS011;3415;51.148;7.014;2023-04-20T01:35:54;3.07;;;2.00;;
6755;SDS011;3415;51.148;7.014;2023-04-20T01:38:22;4.73;;;2.30;;
6755;SDS011;3415;51.148;7.014;2023-04-20T01:40:51;4.10;;;2.20;;
6755;SDS011;3415;51.148;7.014;2023-04-20T01:43:18;3.97;;;1.97;;
6755;SDS011;3415;51.148;7.014;2023-04-20T01:45:46;4.63;;;2.17;;
6755;SDS011;3415;51.148;7.014;2023-04-20T01:48:13;10.60;;;2.83;;
6755;SDS011;3415;51.148;7.014;2023-04-20T01:50:39;3.93;;;2.07;;
6755;SDS011;3415;51.148;7.014;2023-04-20T01:53:06;3.33;;;2.00;;
6755;SDS011;3415;51.148;7.014;2023-04-20T01:55:33;4.80;;;2.67;;
6755;SDS011;3415;51.148;7.014;2023-04-20T01:58:02;4.60;;;2.20;;
6755;SDS011;3415;51.148;7.014;2023-04-20T02:00:28;6.90;;;2.50;;
6755;SDS011;3415;51.148;7.014;2023-04-20T02:02:55;14.10;;;2.97;;
6755;SDS011;3415;51.148;7.014;2023-04-20T02:05:22;5.90;;;3.50;;
6755;SDS011;3415;51.148;7.014;2023-04-20T02:07:49;2.77;;;1.97;;
6755;SDS011;3415;51.148;7.014;2023-04-20T02:10:16;4.00;;;2.33;;
6755;SDS011;3415;51.148;7.014;2023-04-20T02:12:43;4.03;;;2.40;;
6755;SDS011;3415;51.148;7.014;2023-04-20T02:15:11;4.07;;;2.20;;
6755;SDS011;3415;51.148;7.014;2023-04-20T02:17:38;4.83;;;2.47;;
6755;SDS011;3415;51.148;7.014;2023-04-20T02:20:06;8.10;;;3.13;;
6755;SDS011;3415;51.148;7.014;2023-04-20T02:22:34;4.93;;;2.60;;
6755;SDS011;3415;51.148;7.014;2023-04-20T02:25:01;6.73;;;2.83;;
6755;SDS011;3415;51.148;7.014;2023-04-20T02:27:28;4.10;;;2.30;;
6755;SDS011;3415;51.148;7.014;2023-04-20T02:29:55;7.50;;;3.27;;
6755;SDS011;3415;51.148;7.014;2023-04-20T02:32:23;3.90;;;2.30;;
6755;SDS011;3415;51.148;7.014;2023-04-20T02:34:50;4.97;;;2.20;;
6755;SDS011;3415;51.148;7.014;2023-04-20T02:37:17;3.10;;;2.03;;
6755;SDS011;3415;51.148;7.014;2023-04-20T02:39:44;5.50;;;2.87;;
6755;SDS011;3415;51.148;7.014;2023-04-20T02:42:11;4.63;;;2.50;;
6755;SDS011;3415;51.148;7.014;2023-04-20T02:44:38;3.57;;;2.40;;
6755;SDS011;3415;51.148;7.014;2023-04-20T02:47:05;4.30;;;2.07;;
6755;SDS011;3415;51.148;7.014;2023-04-20T02:49:33;5.30;;;2.50;;
6755;SDS011;3415;51.148;7.014;2023-04-20T02:52:01;3.53;;;2.17;;
6755;SDS011;3415;51.148;7.014;2023-04-20T02:54:27;4.93;;;2.60;;
6755;SDS011;3415;51.148;7.014;2023-04-20T02:56:54;3.70;;;2.23;;
6755;SDS011;3415;51.148;7.014;2023-04-20T02:59:22;4.00;;;2.40;;
6755;SDS011;3415;51.148;7.014;2023-04-20T03:01:49;4.23;;;2.40;;
6755;SDS011;3415;51.148;7.014;2023-04-20T03:04:16;8.20;;;2.30;;
6755;SDS011;3415;51.148;7.014;2023-04-20T03:06:44;7.33;;;2.57;;
6755;SDS011;3415;51.148;7.014;2023-04-20T03:09:11;4.80;;;2.60;;
6755;SDS011;3415;51.148;7.014;2023-04-20T03:11:39;2.90;;;2.30;;
6755;SDS011;3415;51.148;7.014;2023-04-20T03:14:06;4.30;;;2.70;;
6755;SDS011;3415;51.148;7.014;2023-04-20T03:16:33;4.60;;;2.20;;
6755;SDS011;3415;51.148;7.014;2023-04-20T03:19:00;4.17;;;2.33;;
6755;SDS011;3415;51.148;7.014;2023-04-20T03:21:27;2.80;;;2.23;;
6755;SDS011;3415;51.148;7.014;2023-04-20T03:23:55;4.33;;;2.57;;
6755;SDS011;3415;51.148;7.014;2023-04-20T03:26:22;3.63;;;2.53;;
6755;SDS011;3415;51.148;7.014;2023-04-20T03:28:49;2.20;;;1.70;;
6755;SDS011;3415;51.148;7.014;2023-04-20T03:31:16;4.10;;;1.83;;
6755;SDS011;3415;51.148;7.014;2023-04-20T03:33:43;4.23;;;2.53;;
6755;SDS011;3415;51.148;7.014;2023-04-20T03:36:10;7.00;;;2.50;;
6755;SDS011;3415;51.148;7.014;2023-04-20T03:38:37;3.70;;;2.00;;
6755;SDS011;3415;51.148;7.014;2023-04-20T03:41:05;4.43;;;2.43;;
6755;SDS011;3415;51.148;7.014;2023-04-20T03:43:32;5.50;;;2.40;;
6755;SDS011;3415;51.148;7.014;2023-04-20T03:45:59;6.60;;;2.33;;
6755;SDS011;3415;51.148;7.014;2023-04-20T03:48:26;4.87;;;2.23;;
6755;SDS011;3415;51.148;7.014;2023-04-20T03:50:53;4.57;;;2.10;;
6755;SDS011;3415;51.148;7.014;2023-04-20T03:53:19;5.13;;;2.63;;
6755;SDS011;3415;51.148;7.014;2023-04-20T03:55:46;4.43;;;2.63;;
6755;SDS011;3415;51.148;7.014;2023-04-20T03:58:14;7.67;;;2.37;;
6755;SDS011;3415;51.148;7.014;2023-04-20T04:00:41;5.20;;;2.20;;
6755;SDS011;3415;51.148;7.014;2023-04-20T04:03:08;8.40;;;2.70;;
6755;SDS011;3415;51.148;7.014;2023-04-20T04:05:35;4.17;;;2.27;;
6755;SDS011;3415;51.148;7.014;2023-04-20T04:08:02;3.00;;;2.17;;
6755;SDS011;3415;51.148;7.014;2023-04-20T04:10:28;4.23;;;2.33;;
6755;SDS011;3415;51.148;7.014;2023-04-20T04:12:55;7.23;;;2.43;;
6755;SDS011;3415;51.148;7.014;2023-04-20T04:15:23;7.73;;;2.60;;
6755;SDS011;3415;51.148;7.014;2023-04-20T04:17:52;2.50;;;2.07;;
6755;SDS011;3415;51.148;7.014;2023-04-20T04:20:19;5.63;;;2.30;;
6755;SDS011;3415;51.148;7.014;2023-04-20T04:22:45;11.30;;;2.33;;
6755;SDS011;3415;51.148;7.014;2023-04-20T04:25:12;3.07;;;2.13;;
6755;SDS011;3415;51.148;7.014;2023-04-20T04:27:39;2.73;;;2.23;;
6755;SDS011;3415;51.148;7.014;2023-04-20T04:30:06;2.80;;;1.97;;
6755;SDS011;3415;51.148;7.014;2023-04-20T04:32:36;10.73;;;3.10;;
6755;SDS011;3415;51.148;7.014;2023-04-20T04:35:03;5.17;;;2.87;;
6755;SDS011;3415;51.148;7.014;2023-04-20T04:37:30;3.23;;;2.20;;
6755;SDS011;3415;51.148;7.014;2023-04-20T04:39:57;4.27;;;2.30;;
6755;SDS011;3415;51.148;7.014;2023-04-20T04:42:26;4.07;;;2.37;;
6755;SDS011;3415;51.148;7.014;2023-04-20T04:44:53;5.83;;;2.80;;
6755;SDS011;3415;51.148;7.014;2023-04-20T04:47:20;5.53;;;2.67;;
6755;SDS011;3415;51.148;7.014;2023-04-20T04:49:48;4.80;;;2.60;;
6755;SDS011;3415;51.148;7.014;2023-04-20T04:52:15;9.93;;;3.97;;
6755;SDS011;3415;51.148;7.014;2023-04-20T04:54:42;5.10;;;3.30;;
6755;SDS011;3415;51.148;7.014;2023-04-20T04:57:09;6.37;;;3.20;;
6755;SDS011;3415;51.148;7.014;2023-04-20T04:59:36;5.63;;;2.60;;
6755;SDS011;3415;51.148;7.014;2023-04-20T05:02:03;7.77;;;3.47;;
6755;SDS011;3415;51.148;7.014;2023-04-20T05:04:30;6.63;;;3.40;;
6755;SDS011;3415;51.148;7.014;2023-04-20T05:06:58;4.30;;;3.27;;
6755;SDS011;3415;51.148;7.014;2023-04-20T05:09:25;5.97;;;3.40;;
6755;SDS011;3415;51.148;7.014;2023-04-20T05:11:57;6.47;;;3.20;;
6755;SDS011;3415;51.148;7.014;2023-04-20T05:14:24;8.50;;;3.30;;
6755;SDS011;3415;51.148;7.014;2023-04-20T05:16:51;4.80;;;2.90;;
6755;SDS011;3415;51.148;7.014;2023-04-20T05:19:17;7.50;;;3.87;;
6755;SDS011;3415;51.148;7.014;2023-04-20T05:21:44;5.60;;;3.20;;
6755;SDS011;3415;51.148;7.014;2023-04-20T05:24:12;6.47;;;3.60;;
6755;SDS011;3415;51.148;7.014;2023-04-20T05:26:39;5.97;;;3.50;;
6755;SDS011;3415;51.148;7.014;2023-04-20T05:29:06;4.80;;;3.17;;
6755;SDS011;3415;51.148;7.014;2023-04-20T05:31:33;4.83;;;2.97;;
6755;SDS011;3415;51.148;7.014;2023-04-20T05:34:00;5.50;;;3.07;;
6755;SDS011;3415;51.148;7.014;2023-04-20T05:36:27;6.23;;;3.43;;
6755;SDS011;3415;51.148;7.014;2023-04-20T05:38:55;5.13;;;3.30;;
6755;SDS011;3415;51.148;7.014;2023-04-20T05:41:23;8.93;;;3.60;;
6755;SDS011;3415;51.148;7.014;2023-04-20T05:43:51;6.80;;;3.80;;
6755;SDS011;3415;51.148;7.014;2023-04-20T05:46:18;11.70;;;4.20;;
6755;SDS011;3415;51.148;7.014;2023-04-20T05:48:45;6.33;;;3.70;;
6755;SDS011;3415;51.148;7.014;2023-04-20T05:51:12;5.83;;;4.20;;
6755;SDS011;3415;51.148;7.014;2023-04-20T05:53:39;7.73;;;3.77;;
6755;SDS011;3415;51.148;7.014;2023-04-20T05:56:06;9.80;;;3.77;;
6755;SDS011;3415;51.148;7.014;2023-04-20T05:58:34;7.60;;;4.47;;
6755;SDS011;3415;51.148;7.014;2023-04-20T06:01:02;6.60;;;3.87;;
6755;SDS011;3415;51.148;7.014;2023-04-20T06:03:29;9.10;;;4.00;;
6755;SDS011;3415;51.148;7.014;2023-04-20T06:05:56;5.47;;;4.10;;
6755;SDS011;3415;51.148;7.014;2023-04-20T06:08:23;8.73;;;4.00;;
6755;SDS011;3415;51.148;7.014;2023-04-20T06:10:52;5.77;;;4.00;;
6755;SDS011;3415;51.148;7.014;2023-04-20T06:13:19;7.33;;;4.43;;
6755;SDS011;3415;51.148;7.014;2023-04-20T06:15:48;6.90;;;4.37;;
6755;SDS011;3415;51.148;7.014;2023-04-20T06:18:16;7.40;;;4.37;;
6755;SDS011;3415;51.148;7.014;2023-04-20T06:20:43;6.90;;;3.33;;
6755;SDS011;3415;51.148;7.014;2023-04-20T06:23:10;6.67;;;4.27;;
6755;SDS011;3415;51.148;7.014;2023-04-20T06:25:37;5.83;;;3.30;;
6755;SDS011;3415;51.148;7.014;2023-04-20T06:28:05;6.93;;;3.90;;
6755;SDS011;3415;51.148;7.014;2023-04-20T06:30:32;8.17;;;2.90;;
6755;SDS011;3415;51.148;7.014;2023-04-20T06:33:00;5.13;;;3.30;;
6755;SDS011;3415;51.148;7.014;2023-04-20T06:35:28;4.50;;;3.50;;
6755;SDS011;3415;51.148;7.014;2023-04-20T06:37:55;4.47;;;2.70;;
6755;SDS011;3415;51.148;7.014;2023-04-20T06:40:22;5.00;;;3.03;;
6755;SDS011;3415;51.148;7.014;2023-04-20T06:42:51;7.93;;;3.53;;
6755;SDS011;3415;51.148;7.014;2023-04-20T06:45:18;5.57;;;3.23;;
6755;SDS011;3415;51.148;7.014;2023-04-20T06:47:45;4.60;;;2.80;;
6755;SDS011;3415;51.148;7.014;2023-04-20T06:50:13;4.00;;;2.73;;
6755;SDS011;3415;51.148;7.014;2023-04-20T06:52:40;6.30;;;3.13;;
6755;SDS011;3415;51.148;7.014;2023-04-20T06:55:07;8.40;;;3.20;;
6755;SDS011;3415;51.148;7.014;2023-04-20T06:57:35;4.80;;;2.90;;
6755;SDS011;3415;51.148;7.014;2023-04-20T07:00:03;6.10;;;3.10;;
6755;SDS011;3415;51.148;7.014;2023-04-20T07:02:40;5.50;;;3.70;;
6755;SDS011;3415;51.148;7.014;2023-04-20T07:05:08;5.17;;;2.90;;
6755;SDS011;3415;51.148;7.014;2023-04-20T07:07:36;4.03;;;2.67;;
6755;SDS011;3415;51.148;7.014;2023-04-20T07:10:03;5.13;;;2.80;;
6755;SDS011;3415;51.148;7.014;2023-04-20T07:12:30;4.80;;;3.10;;
6755;SDS011;3415;51.148;7.014;2023-04-20T07:14:59;5.70;;;2.87;;
6755;SDS011;3415;51.148;7.014;2023-04-20T07:17:26;4.10;;;2.73;;
6755;SDS011;3415;51.148;7.014;2023-04-20T07:19:53;3.60;;;2.73;;
6755;SDS011;3415;51.148;7.014;2023-04-20T07:22:20;4.97;;;2.70;;
6755;SDS011;3415;51.148;7.014;2023-04-20T07:24:48;4.07;;;2.90;;
6755;SDS011;3415;51.148;7.014;2023-04-20T07:27:15;4.20;;;2.60;;
6755;SDS011;3415;51.148;7.014;2023-04-20T07:29:42;2.77;;;2.40;;
6755;SDS011;3415;51.148;7.014;2023-04-20T07:32:09;4.13;;;2.40;;
6755;SDS011;3415;51.148;7.014;2023-04-20T07:34:36;4.90;;;3.13;;
6755;SDS011;3415;51.148;7.014;2023-04-20T07:37:03;3.37;;;2.20;;
6755;SDS011;3415;51.148;7.014;2023-04-20T07:39:29;2.97;;;2.50;;
6755;SDS011;3415;51.148;7.014;2023-04-20T07:41:57;5.47;;;2.33;;
6755;SDS011;3415;51.148;7.014;2023-04-20T07:44:24;4.30;;;2.50;;
6755;SDS011;3415;51.148;7.014;2023-04-20T07:46:51;3.77;;;2.67;;
6755;SDS011;3415;51.148;7.014;2023-04-20T07:49:19;5.30;;;2.97;;
6755;SDS011;3415;51.148;7.014;2023-04-20T07:51:45;5.87;;;3.00;;
6755;SDS011;3415;51.148;7.014;2023-04-20T07:54:12;4.43;;;2.53;;
6755;SDS011;3415;51.148;7.014;2023-04-20T07:56:39;4.80;;;2.73;;
6755;SDS011;3415;51.148;7.014;2023-04-20T07:59:08;5.70;;;3.00;;
6755;SDS011;3415;51.148;7.014;2023-04-20T08:01:35;6.10;;;3.43;;
6755;SDS011;3415;51.148;7.014;2023-04-20T08:04:02;5.13;;;2.90;;
6755;SDS011;3415;51.148;7.014;2023-04-20T08:06:29;4.13;;;2.27;;
6755;SDS011;3415;51.148;7.014;2023-04-20T08:08:55;5.10;;;2.93;;
6755;SDS011;3415;51.148;7.014;2023-04-20T08:11:22;4.63;;;2.90;;
6755;SDS011;3415;51.148;7.014;2023-04-20T08:13:50;4.10;;;2.63;;
6755;SDS011;3415;51.148;7.014;2023-04-20T08:16:19;4.10;;;2.87;;
6755;SDS011;3415;51.148;7.014;2023-04-20T08:18:45;5.57;;;3.23;;
6755;SDS011;3415;51.148;7.014;2023-04-20T08:21:12;6.10;;;3.20;;
6755;SDS011;3415;51.148;7.014;2023-04-20T08:23:39;3.60;;;2.80;;
6755;SDS011;3415;51.148;7.014;2023-04-20T08:26:06;3.50;;;2.60;;
6755;SDS011;3415;51.148;7.014;2023-04-20T08:28:33;4.07;;;2.50;;
6755;SDS011;3415;51.148;7.014;2023-04-20T08:31:00;5.20;;;2.40;;
6755;SDS011;3415;51.148;7.014;2023-04-20T08:33:28;4.47;;;2.63;;
6755;SDS011;3415;51.148;7.014;2023-04-20T08:35:55;3.57;;;2.47;;
6755;SDS011;3415;51.148;7.014;2023-04-20T08:38:21;5.93;;;2.90;;
6755;SDS011;3415;51.148;7.014;2023-04-20T08:40:49;5.80;;;2.40;;
6755;SDS011;3415;51.148;7.014;2023-04-20T08:43:16;3.67;;;2.70;;
6755;SDS011;3415;51.148;7.014;2023-04-20T08:45:43;2.83;;;2.27;;
6755;SDS011;3415;51.148;7.014;2023-04-20T08:48:13;3.43;;;2.50;;
6755;SDS011;3415;51.148;7.014;2023-04-20T08:50:45;3.73;;;2.50;;
6755;SDS011;3415;51.148;7.014;2023-04-20T08:53:13;5.33;;;2.17;;
6755;SDS011;3415;51.148;7.014;2023-04-20T08:55:40;4.33;;;2.40;;
6755;SDS011;3415;51.148;7.014;2023-04-20T08:58:07;3.63;;;2.10;;
6755;SDS011;3415;51.148;7.014;2023-04-20T09:00:34;3.53;;;2.10;;
6755;SDS011;3415;51.148;7.014;2023-04-20T09:03:00;4.63;;;2.40;;
6755;SDS011;3415;51.148;7.014;2023-04-20T09:05:28;4.20;;;2.83;;
6755;SDS011;3415;51.148;7.014;2023-04-20T09:07:58;3.57;;;2.20;;
6755;SDS011;3415;51.148;7.014;2023-04-20T09:10:26;4.23;;;2.43;;
6755;SDS011;3415;51.148;7.014;2023-04-20T09:13:05;3.53;;;2.30;;
6755;SDS011;3415;51.148;7.014;2023-04-20T09:15:32;5.60;;;3.10;;
6755;SDS011;3415;51.148;7.014;2023-04-20T09:18:09;3.37;;;2.33;;
6755;SDS011;3415;51.148;7.014;2023-04-20T09:20:38;3.30;;;2.30;;
6755;SDS011;3415;51.148;7.014;2023-04-20T09:23:13;3.47;;;2.20;;
6755;SDS011;3415;51.148;7.014;2023-04-20T09:25:42;3.33;;;2.37;;
6755;SDS011;3415;51.148;7.014;2023-04-20T09:28:11;4.37;;;2.30;;
6755;SDS011;3415;51.148;7.014;2023-04-20T09:30:40;3.60;;;2.30;;
6755;SDS011;3415;51.148;7.014;2023-04-20T09:33:08;4.17;;;2.60;;
6755;SDS011;3415;51.148;7.014;2023-04-20T09:35:36;4.23;;;2.40;;
6755;SDS011;3415;51.148;7.014;2023-04-20T09:38:04;3.10;;;2.00;;
6755;SDS011;3415;51.148;7.014;2023-04-20T09:40:33;3.20;;;2.07;;
6755;SDS011;3415;51.148;7.014;2023-04-20T09:43:02;3.83;;;2.30;;
6755;SDS011;3415;51.148;7.014;2023-04-20T09:45:32;3.73;;;2.30;;
6755;SDS011;3415;51.148;7.014;2023-04-20T09:47:59;7.23;;;2.33;;
6755;SDS011;3415;51.148;7.014;2023-04-20T09:50:29;3.23;;;2.17;;
6755;SDS011;3415;51.148;7.014;2023-04-20T09:52:57;12.90;;;2.40;;
6755;SDS011;3415;51.148;7.014;2023-04-20T09:55:25;3.60;;;2.07;;
6755;SDS011;3415;51.148;7.014;2023-04-20T09:57:56;3.17;;;2.00;;
6755;SDS011;3415;51.148;7.014;2023-04-20T10:00:24;3.00;;;2.10;;
6755;SDS011;3415;51.148;7.014;2023-04-20T10:02:51;3.47;;;2.10;;
6755;SDS011;3415;51.148;7.014;2023-04-20T10:05:18;2.77;;;1.93;;
6755;SDS011;3415;51.148;7.014;2023-04-20T10:07:46;2.60;;;1.80;;
6755;SDS011;3415;51.148;7.014;2023-04-20T10:10:23;2.73;;;2.00;;
6755;SDS011;3415;51.148;7.014;2023-04-20T10:12:51;2.60;;;1.83;;
6755;SDS011;3415;51.148;7.014;2023-04-20T10:15:21;2.53;;;1.80;;
6755;SDS011;3415;51.148;7.014;2023-04-20T10:17:48;4.13;;;2.37;;
6755;SDS011;3415;51.148;7.014;2023-04-20T10:20:19;2.60;;;1.60;;
6755;SDS011;3415;51.148;7.014;2023-04-20T10:22:47;3.00;;;1.67;;
6755;SDS011;3415;51.148;7.014;2023-04-20T10:25:14;3.10;;;1.90;;
6755;SDS011;3415;51.148;7.014;2023-04-20T10:27:51;2.97;;;2.07;;
6755;SDS011;3415;51.148;7.014;2023-04-20T10:30:19;2.70;;;1.80;;
6755;SDS011;3415;51.148;7.014;2023-04-20T10:32:48;2.83;;;1.90;;
6755;SDS011;3415;51.148;7.014;2023-04-20T10:35:15;1.87;;;1.17;;
6755;SDS011;3415;51.148;7.014;2023-04-20T10:37:47;1.97;;;1.40;;
6755;SDS011;3415;51.148;7.014;2023-04-20T10:40:15;2.13;;;1.23;;
6755;SDS011;3415;51.148;7.014;2023-04-20T10:42:43;1.40;;;0.90;;
6755;SDS011;3415;51.148;7.014;2023-04-20T10:45:10;1.40;;;0.80;;
6755;SDS011;3415;51.148;7.014;2023-04-20T10:47:38;1.50;;;1.00;;
6755;SDS011;3415;51.148;7.014;2023-04-20T10:50:06;3.40;;;1.77;;
6755;SDS011;3415;51.148;7.014;2023-04-20T10:52:34;2.20;;;1.40;;
6755;SDS011;3415;51.148;7.014;2023-04-20T10:55:02;3.03;;;1.50;;
6755;SDS011;3415;51.148;7.014;2023-04-20T10:57:30;3.40;;;1.97;;
6755;SDS011;3415;51.148;7.014;2023-04-20T10:59:57;2.93;;;1.93;;
6755;SDS011;3415;51.148;7.014;2023-04-20T11:02:24;2.57;;;1.50;;
6755;SDS011;3415;51.148;7.014;2023-04-20T11:04:53;2.50;;;1.67;;
6755;SDS011;3415;51.148;7.014;2023-04-20T11:07:24;3.10;;;1.70;;
6755;SDS011;3415;51.148;7.014;2023-04-20T11:09:52;2.40;;;1.70;;
6755;SDS011;3415;51.148;7.014;2023-04-20T11:12:19;2.17;;;1.43;;
6755;SDS011;3415;51.148;7.014;2023-04-20T11:14:50;2.60;;;1.53;;
6755;SDS011;3415;51.148;7.014;2023-04-20T11:17:18;2.50;;;1.30;;
6755;SDS011;3415;51.148;7.014;2023-04-20T11:19:45;2.13;;;1.30;;
6755;SDS011;3415;51.148;7.014;2023-04-20T11:22:20;2.10;;;1.30;;
6755;SDS011;3415;51.148;7.014;2023-04-20T11:24:47;1.70;;;1.00;;
6755;SDS011;3415;51.148;7.014;2023-04-20T11:27:18;1.80;;;1.30;;
6755;SDS011;3415;51.148;7.014;2023-04-20T11:29:54;2.33;;;1.20;;
6755;SDS011;3415;51.148;7.014;2023-04-20T11:32:21;1.53;;;0.97;;
6755;SDS011;3415;51.148;7.014;2023-04-20T11:34:56;1.60;;;0.90;;
6755;SDS011;3415;51.148;7.014;2023-04-20T11:37:26;1.87;;;0.90;;
6755;SDS011;3415;51.148;7.014;2023-04-20T11:39:59;1.50;;;1.00;;
6755;SDS011;3415;51.148;7.014;2023-04-20T11:42:26;1.93;;;1.27;;
6755;SDS011;3415;51.148;7.014;2023-04-20T11:44:53;2.20;;;1.37;;
6755;SDS011;3415;51.148;7.014;2023-04-20T11:47:19;2.00;;;1.10;;
6755;SDS011;3415;51.148;7.014;2023-04-20T11:49:47;2.03;;;1.20;;
6755;SDS011;3415;51.148;7.014;2023-04-20T11:52:14;2.00;;;1.30;;
6755;SDS011;3415;51.148;7.014;2023-04-20T11:54:42;2.97;;;1.80;;
6755;SDS011;3415;51.148;7.014;2023-04-20T11:57:09;2.50;;;1.50;;
6755;SDS011;3415;51.148;7.014;2023-04-20T11:59:36;2.37;;;1.40;;
6755;SDS011;3415;51.148;7.014;2023-04-20T12:02:03;2.70;;;1.73;;
6755;SDS011;3415;51.148;7.014;2023-04-20T12:04:30;1.90;;;1.50;;
6755;SDS011;3415;51.148;7.014;2023-04-20T12:06:58;3.40;;;2.40;;
6755;SDS011;3415;51.148;7.014;2023-04-20T12:09:26;2.57;;;1.80;;
6755;SDS011;3415;51.148;7.014;2023-04-20T12:11:55;3.60;;;1.73;;
6755;SDS011;3415;51.148;7.014;2023-04-20T12:14:23;2.33;;;1.70;;
6755;SDS011;3415;51.148;7.014;2023-04-20T12:16:50;2.50;;;1.50;;
6755;SDS011;3415;51.148;7.014;2023-04-20T12:19:17;2.30;;;1.60;;
6755;SDS011;3415;51.148;7.014;2023-04-20T12:21:44;2.80;;;2.00;;
6755;SDS011;3415;51.148;7.014;2023-04-20T12:24:12;3.00;;;1.80;;
6755;SDS011;3415;51.148;7.014;2023-04-20T12:26:39;3.97;;;2.50;;
6755;SDS011;3415;51.148;7.014;2023-04-20T12:29:07;4.23;;;2.40;;
6755;SDS011;3415;51.148;7.014;2023-04-20T12:31:34;3.60;;;2.03;;
6755;SDS011;3415;51.148;7.014;2023-04-20T12:34:01;2.77;;;2.20;;
6755;SDS011;3415;51.148;7.014;2023-04-20T12:36:28;3.50;;;2.20;;
6755;SDS011;3415;51.148;7.014;2023-04-20T12:38:56;2.93;;;1.77;;
6755;SDS011;3415;51.148;7.014;2023-04-20T12:41:23;2.77;;;2.10;;
6755;SDS011;3415;51.148;7.014;2023-04-20T12:43:49;2.73;;;2.10;;
6755;SDS011;3415;51.148;7.014;2023-04-20T12:46:18;3.93;;;2.20;;
6755;SDS011;3415;51.148;7.014;2023-04-20T12:48:44;2.60;;;1.97;;
6755;SDS011;3415;51.148;7.014;2023-04-20T12:51:11;3.70;;;2.30;;
6755;SDS011;3415;51.148;7.014;2023-04-20T12:53:39;2.80;;;2.07;;
6755;SDS011;3415;51.148;7.014;2023-04-20T12:56:06;3.10;;;2.30;;
6755;SDS011;3415;51.148;7.014;2023-04-20T12:58:33;3.50;;;2.40;;
6755;SDS011;3415;51.148;7.014;2023-04-20T13:01:00;4.07;;;2.60;;
6755;SDS011;3415;51.148;7.014;2023-04-20T13:03:28;4.27;;;2.60;;
6755;SDS011;3415;51.148;7.014;2023-04-20T13:05:55;4.80;;;2.87;;
6755;SDS011;3415;51.148;7.014;2023-04-20T13:08:22;3.97;;;2.70;;
6755;SDS011;3415;51.148;7.014;2023-04-20T13:10:48;3.43;;;2.40;;
6755;SDS011;3415;51.148;7.014;2023-04-20T13:13:15;7.97;;;2.83;;
6755;SDS011;3415;51.148;7.014;2023-04-20T13:15:42;4.23;;;2.37;;
6755;SDS011;3415;51.148;7.014;2023-04-20T13:18:09;3.50;;;2.60;;
6755;SDS011;3415;51.148;7.014;2023-04-20T13:20:39;3.57;;;2.67;;
6755;SDS011;3415;51.148;7.014;2023-04-20T13:23:06;3.63;;;2.20;;
6755;SDS011;3415;51.148;7.014;2023-04-20T13:25:32;4.13;;;2.30;;
6755;SDS011;3415;51.148;7.014;2023-04-20T13:28:00;3.10;;;2.13;;
6755;SDS011;3415;51.148;7.014;2023-04-20T13:30:29;3.10;;;2.30;;
6755;SDS011;3415;51.148;7.014;2023-04-20T13:32:56;4.40;;;2.80;;
6755;SDS011;3415;51.148;7.014;2023-04-20T13:35:22;3.60;;;2.40;;
6755;SDS011;3415;51.148;7.014;2023-04-20T13:37:52;4.83;;;2.87;;
6755;SDS011;3415;51.148;7.014;2023-04-20T13:40:19;4.80;;;3.13;;
6755;SDS011;3415;51.148;7.014;2023-04-20T13:42:46;4.60;;;2.63;;
6755;SDS011;3415;51.148;7.014;2023-04-20T13:45:12;3.90;;;2.37;;
6755;SDS011;3415;51.148;7.014;2023-04-20T13:47:39;4.63;;;3.13;;
6755;SDS011;3415;51.148;7.014;2023-04-20T13:50:06;5.43;;;3.17;;
6755;SDS011;3415;51.148;7.014;2023-04-20T13:52:34;8.50;;;3.20;;
6755;SDS011;3415;51.148;7.014;2023-04-20T13:55:02;2.93;;;2.17;;
6755;SDS011;3415;51.148;7.014;2023-04-20T13:57:29;4.10;;;2.90;;
6755;SDS011;3415;51.148;7.014;2023-04-20T13:59:56;3.57;;;2.80;;
6755;SDS011;3415;51.148;7.014;2023-04-20T14:02:24;4.80;;;3.20;;
6755;SDS011;3415;51.148;7.014;2023-04-20T14:04:52;5.67;;;2.97;;
6755;SDS011;3415;51.148;7.014;2023-04-20T14:07:20;5.37;;;2.90;;
6755;SDS011;3415;51.148;7.014;2023-04-20T14:09:47;4.50;;;2.13;;
6755;SDS011;3415;51.148;7.014;2023-04-20T14:12:16;4.00;;;2.80;;
6755;SDS011;3415;51.148;7.014;2023-04-20T14:14:43;4.60;;;3.17;;
6755;SDS011;3415;51.148;7.014;2023-04-20T14:17:09;4.07;;;2.80;;
6755;SDS011;3415;51.148;7.014;2023-04-20T14:19:36;4.47;;;2.57;;
6755;SDS011;3415;51.148;7.014;2023-04-20T14:22:03;4.80;;;3.00;;
6755;SDS011;3415;51.148;7.014;2023-04-20T14:24:30;3.87;;;2.73;;
6755;SDS011;3415;51.148;7.014;2023-04-20T14:26:57;4.40;;;2.77;;
6755;SDS011;3415;51.148;7.014;2023-04-20T14:29:25;4.60;;;2.83;;
6755;SDS011;3415;51.148;7.014;2023-04-20T14:31:52;8.20;;;3.20;;
6755;SDS011;3415;51.148;7.014;2023-04-20T14:34:19;4.90;;;2.83;;
6755;SDS011;3415;51.148;7.014;2023-04-20T14:36:46;7.30;;;3.87;;
6755;SDS011;3415;51.148;7.014;2023-04-20T14:39:13;4.83;;;3.27;;
6755;SDS011;3415;51.148;7.014;2023-04-20T14:41:40;5.10;;;3.17;;
6755;SDS011;3415;51.148;7.014;2023-04-20T14:44:07;6.77;;;3.00;;
6755;SDS011;3415;51.148;7.014;2023-04-20T14:46:35;3.73;;;2.80;;
6755;SDS011;3415;51.148;7.014;2023-04-20T14:49:02;3.00;;;2.37;;
6755;SDS011;3415;51.148;7.014;2023-04-20T14:51:29;5.40;;;3.47;;
6755;SDS011;3415;51.148;7.014;2023-04-20T14:53:56;4.70;;;2.90;;
6755;SDS011;3415;51.148;7.014;2023-04-20T14:56:23;6.30;;;3.70;;
6755;SDS011;3415;51.148;7.014;2023-04-20T14:58:50;5.43;;;3.50;;
6755;SDS011;3415;51.148;7.014;2023-04-20T15:01:16;5.73;;;3.20;;
6755;SDS011;3415;51.148;7.014;2023-04-20T15:03:44;6.70;;;3.43;;
6755;SDS011;3415;51.148;7.014;2023-04-20T15:06:11;4.53;;;2.97;;
6755;SDS011;3415;51.148;7.014;2023-04-20T15:08:38;7.27;;;2.90;;
6755;SDS011;3415;51.148;7.014;2023-04-20T15:11:05;4.53;;;3.07;;
6755;SDS011;3415;51.148;7.014;2023-04-20T15:13:32;5.10;;;2.83;;
6755;SDS011;3415;51.148;7.014;2023-04-20T15:15:59;5.33;;;3.30;;
6755;SDS011;3415;51.148;7.014;2023-04-20T15:18:26;4.00;;;2.63;;